sensor_id;sensor_type;location;lat;lon;timestamp;temperature;humidity
35682;DHT22;21805;51.022;4.782;2022-08-20T00:01:53;21.60;99.90
35682;DHT22;21805;51.022;4.782;2022-08-20T00:04:20;21.50;99.90
35682;DHT22;21805;51.022;4.782;2022-08-20T00:06:48;21.50;99.90
35682;DHT22;21805;51.022;4.782;2022-08-20T00:09:19;21.50;99.90
35682;DHT22;21805;51.022;4.782;2022-08-20T00:11:49;21.50;99.90
35682;DHT22;21805;51.022;4.782;2022-08-20T00:14:23;21.40;99.90
35682;DHT22;21805;51.022;4.782;2022-08-20T00:16:50;21.30;99.90
35682;DHT22;21805;51.022;4.782;2022-08-20T00:19:17;21.30;99.90
35682;DHT22;21805;51.022;4.782;2022-08-20T00:21:44;21.30;99.90
35682;DHT22;21805;51.022;4.782;2022-08-20T00:24:11;21.30;99.90
35682;DHT22;21805;51.022;4.782;2022-08-20T00:26:38;21.20;99.90
35682;DHT22;21805;51.022;4.782;2022-08-20T00:29:05;21.20;99.90
35682;DHT22;21805;51.022;4.782;2022-08-20T00:31:30;21.10;99.90
35682;DHT22;21805;51.022;4.782;2022-08-20T00:33:57;21.10;99.90
35682;DHT22;21805;51.022;4.782;2022-08-20T00:36:24;21.10;99.90
35682;DHT22;21805;51.022;4.782;2022-08-20T00:38:53;21.00;99.90
35682;DHT22;21805;51.022;4.782;2022-08-20T00:41:28;21.10;99.90
35682;DHT22;21805;51.022;4.782;2022-08-20T00:44:11;21.00;99.90
35682;DHT22;21805;51.022;4.782;2022-08-20T00:49:08;21.10;99.90
35682;DHT22;21805;51.022;4.782;2022-08-20T00:51:47;21.10;99.90
35682;DHT22;21805;51.022;4.782;2022-08-20T00:54:19;21.10;99.90
35682;DHT22;21805;51.022;4.782;2022-08-20T00:56:51;21.10;99.90
35682;DHT22;21805;51.022;4.782;2022-08-20T00:59:27;21.10;99.90
35682;DHT22;21805;51.022;4.782;2022-08-20T01:01:59;21.10;99.90
35682;DHT22;21805;51.022;4.782;2022-08-20T01:04:28;21.10;99.90
35682;DHT22;21805;51.022;4.782;2022-08-20T01:07:03;21.00;99.90
35682;DHT22;21805;51.022;4.782;2022-08-20T01:12:00;20.90;99.90
35682;DHT22;21805;51.022;4.782;2022-08-20T01:14:27;20.90;99.90
35682;DHT22;21805;51.022;4.782;2022-08-20T01:17:07;20.90;99.90
35682;DHT22;21805;51.022;4.782;2022-08-20T01:19:42;20.90;99.90
35682;DHT22;21805;51.022;4.782;2022-08-20T01:22:14;20.90;99.90
35682;DHT22;21805;51.022;4.782;2022-08-20T01:25:17;20.80;99.90
35682;DHT22;21805;51.022;4.782;2022-08-20T01:27:44;20.90;99.90
35682;DHT22;21805;51.022;4.782;2022-08-20T01:30:14;20.80;99.90
35682;DHT22;21805;51.022;4.782;2022-08-20T01:32:42;20.70;99.90
35682;DHT22;21805;51.022;4.782;2022-08-20T01:35:08;20.70;99.90
35682;DHT22;21805;51.022;4.782;2022-08-20T01:37:34;20.70;99.90
35682;DHT22;21805;51.022;4.782;2022-08-20T01:40:03;20.70;99.90
35682;DHT22;21805;51.022;4.782;2022-08-20T01:42:36;20.70;99.90
35682;DHT22;21805;51.022;4.782;2022-08-20T01:45:05;20.60;99.90
35682;DHT22;21805;51.022;4.782;2022-08-20T01:47:33;20.60;99.90
35682;DHT22;21805;51.022;4.782;2022-08-20T01:50:00;20.50;99.90
35682;DHT22;21805;51.022;4.782;2022-08-20T01:52:38;20.50;99.90
35682;DHT22;21805;51.022;4.782;2022-08-20T01:55:08;20.40;99.90
35682;DHT22;21805;51.022;4.782;2022-08-20T01:57:35;20.40;99.90
35682;DHT22;21805;51.022;4.782;2022-08-20T02:02:34;20.30;99.90
35682;DHT22;21805;51.022;4.782;2022-08-20T02:05:02;20.40;99.90
35682;DHT22;21805;51.022;4.782;2022-08-20T02:07:30;20.30;99.90
35682;DHT22;21805;51.022;4.782;2022-08-20T02:10:04;20.20;99.90
35682;DHT22;21805;51.022;4.782;2022-08-20T02:12:31;20.00;99.90
35682;DHT22;21805;51.022;4.782;2022-08-20T02:14:58;20.10;99.90
35682;DHT22;21805;51.022;4.782;2022-08-20T02:17:26;20.00;99.90
35682;DHT22;21805;51.022;4.782;2022-08-20T02:20:00;19.90;99.90
35682;DHT22;21805;51.022;4.782;2022-08-20T02:22:35;19.90;99.90
35682;DHT22;21805;51.022;4.782;2022-08-20T02:25:06;19.80;99.90
35682;DHT22;21805;51.022;4.782;2022-08-20T02:27:34;19.70;99.90
35682;DHT22;21805;51.022;4.782;2022-08-20T02:30:02;19.60;99.90
35682;DHT22;21805;51.022;4.782;2022-08-20T02:32:28;19.70;99.90
35682;DHT22;21805;51.022;4.782;2022-08-20T02:35:03;19.70;99.90
35682;DHT22;21805;51.022;4.782;2022-08-20T02:40:03;19.80;99.90
35682;DHT22;21805;51.022;4.782;2022-08-20T02:42:30;19.80;99.90
35682;DHT22;21805;51.022;4.782;2022-08-20T02:44:57;19.70;99.90
35682;DHT22;21805;51.022;4.782;2022-08-20T02:47:24;19.70;99.90
35682;DHT22;21805;51.022;4.782;2022-08-20T02:49:52;19.70;99.90
35682;DHT22;21805;51.022;4.782;2022-08-20T02:52:24;19.70;99.90
35682;DHT22;21805;51.022;4.782;2022-08-20T02:54:51;19.70;99.90
35682;DHT22;21805;51.022;4.782;2022-08-20T02:59:46;19.60;99.90
35682;DHT22;21805;51.022;4.782;2022-08-20T03:02:12;19.60;99.90
35682;DHT22;21805;51.022;4.782;2022-08-20T03:07:07;19.50;99.90
35682;DHT22;21805;51.022;4.782;2022-08-20T03:09:35;19.50;99.90
35682;DHT22;21805;51.022;4.782;2022-08-20T03:12:02;19.50;99.90
35682;DHT22;21805;51.022;4.782;2022-08-20T03:19:27;19.40;99.90
35682;DHT22;21805;51.022;4.782;2022-08-20T03:24:22;19.30;99.90
35682;DHT22;21805;51.022;4.782;2022-08-20T03:26:51;19.20;99.90
35682;DHT22;21805;51.022;4.782;2022-08-20T03:29:19;19.20;99.90
35682;DHT22;21805;51.022;4.782;2022-08-20T03:31:49;19.20;99.90
35682;DHT22;21805;51.022;4.782;2022-08-20T03:34:15;19.40;99.90
35682;DHT22;21805;51.022;4.782;2022-08-20T03:36:40;19.20;99.90
35682;DHT22;21805;51.022;4.782;2022-08-20T03:39:10;19.30;99.90
35682;DHT22;21805;51.022;4.782;2022-08-20T03:41:38;19.30;99.90
35682;DHT22;21805;51.022;4.782;2022-08-20T03:44:05;19.30;99.90
35682;DHT22;21805;51.022;4.782;2022-08-20T03:46:31;19.20;99.90
35682;DHT22;21805;51.022;4.782;2022-08-20T03:49:00;19.30;99.90
35682;DHT22;21805;51.022;4.782;2022-08-20T03:51:28;19.20;99.90
35682;DHT22;21805;51.022;4.782;2022-08-20T03:53:54;19.20;99.90
35682;DHT22;21805;51.022;4.782;2022-08-20T03:56:19;19.20;99.90
35682;DHT22;21805;51.022;4.782;2022-08-20T03:58:45;19.10;99.90
35682;DHT22;21805;51.022;4.782;2022-08-20T04:01:13;19.10;99.90
35682;DHT22;21805;51.022;4.782;2022-08-20T04:06:10;19.20;99.90
35682;DHT22;21805;51.022;4.782;2022-08-20T04:08:38;19.20;99.90
35682;DHT22;21805;51.022;4.782;2022-08-20T04:11:06;19.20;99.90
35682;DHT22;21805;51.022;4.782;2022-08-20T04:13:33;19.30;99.90
35682;DHT22;21805;51.022;4.782;2022-08-20T04:16:05;19.30;99.90
35682;DHT22;21805;51.022;4.782;2022-08-20T04:18:34;19.30;99.90
35682;DHT22;21805;51.022;4.782;2022-08-20T04:21:01;19.20;99.90
35682;DHT22;21805;51.022;4.782;2022-08-20T04:26:00;19.20;99.90
35682;DHT22;21805;51.022;4.782;2022-08-20T04:28:27;19.20;99.90
35682;DHT22;21805;51.022;4.782;2022-08-20T04:30:55;19.10;99.90
35682;DHT22;21805;51.022;4.782;2022-08-20T04:33:25;19.10;99.90
35682;DHT22;21805;51.022;4.782;2022-08-20T04:35:53;19.10;99.90
35682;DHT22;21805;51.022;4.782;2022-08-20T04:38:20;19.20;99.90
35682;DHT22;21805;51.022;4.782;2022-08-20T04:40:46;19.20;99.90
35682;DHT22;21805;51.022;4.782;2022-08-20T04:43:32;19.20;99.90
35682;DHT22;21805;51.022;4.782;2022-08-20T04:45:59;19.20;99.90
35682;DHT22;21805;51.022;4.782;2022-08-20T04:50:56;19.20;99.90
35682;DHT22;21805;51.022;4.782;2022-08-20T04:53:24;19.20;99.90
35682;DHT22;21805;51.022;4.782;2022-08-20T04:55:54;19.20;99.90
35682;DHT22;21805;51.022;4.782;2022-08-20T04:58:22;19.20;99.90
35682;DHT22;21805;51.022;4.782;2022-08-20T05:00:50;19.20;99.90
35682;DHT22;21805;51.022;4.782;2022-08-20T05:03:18;19.20;99.90
35682;DHT22;21805;51.022;4.782;2022-08-20T05:05:45;19.20;99.90
35682;DHT22;21805;51.022;4.782;2022-08-20T05:08:12;19.10;99.90
35682;DHT22;21805;51.022;4.782;2022-08-20T05:10:39;19.20;99.90
35682;DHT22;21805;51.022;4.782;2022-08-20T05:13:05;19.20;99.90
35682;DHT22;21805;51.022;4.782;2022-08-20T05:15:32;19.20;99.90
35682;DHT22;21805;51.022;4.782;2022-08-20T05:18:04;19.20;99.90
35682;DHT22;21805;51.022;4.782;2022-08-20T05:20:33;19.20;99.90
35682;DHT22;21805;51.022;4.782;2022-08-20T05:23:02;19.20;99.90
35682;DHT22;21805;51.022;4.782;2022-08-20T05:25:28;19.30;99.90
35682;DHT22;21805;51.022;4.782;2022-08-20T05:27:57;19.20;99.90
35682;DHT22;21805;51.022;4.782;2022-08-20T05:30:26;19.30;99.90
35682;DHT22;21805;51.022;4.782;2022-08-20T05:33:00;19.30;99.90
35682;DHT22;21805;51.022;4.782;2022-08-20T05:35:28;19.40;99.90
35682;DHT22;21805;51.022;4.782;2022-08-20T05:40:27;19.40;99.90
35682;DHT22;21805;51.022;4.782;2022-08-20T05:42:53;19.30;99.90
35682;DHT22;21805;51.022;4.782;2022-08-20T05:45:22;19.40;99.90
35682;DHT22;21805;51.022;4.782;2022-08-20T05:50:18;19.50;99.90
35682;DHT22;21805;51.022;4.782;2022-08-20T05:52:45;19.40;99.90
35682;DHT22;21805;51.022;4.782;2022-08-20T05:55:20;19.50;99.90
35682;DHT22;21805;51.022;4.782;2022-08-20T05:57:48;19.50;99.90
35682;DHT22;21805;51.022;4.782;2022-08-20T06:00:13;19.40;99.90
35682;DHT22;21805;51.022;4.782;2022-08-20T06:02:41;19.40;99.90
35682;DHT22;21805;51.022;4.782;2022-08-20T06:05:26;19.40;99.90
35682;DHT22;21805;51.022;4.782;2022-08-20T06:07:53;19.40;99.90
35682;DHT22;21805;51.022;4.782;2022-08-20T06:10:19;19.40;99.90
35682;DHT22;21805;51.022;4.782;2022-08-20T06:12:45;19.40;99.90
35682;DHT22;21805;51.022;4.782;2022-08-20T06:15:12;19.40;99.90
35682;DHT22;21805;51.022;4.782;2022-08-20T06:17:38;19.40;99.90
35682;DHT22;21805;51.022;4.782;2022-08-20T06:20:04;19.40;99.90
35682;DHT22;21805;51.022;4.782;2022-08-20T06:22:34;19.50;99.90
35682;DHT22;21805;51.022;4.782;2022-08-20T06:25:04;19.40;99.90
35682;DHT22;21805;51.022;4.782;2022-08-20T06:27:41;19.50;99.90
35682;DHT22;21805;51.022;4.782;2022-08-20T06:30:08;19.50;99.90
35682;DHT22;21805;51.022;4.782;2022-08-20T06:32:35;19.40;99.90
35682;DHT22;21805;51.022;4.782;2022-08-20T06:35:02;19.50;99.90
35682;DHT22;21805;51.022;4.782;2022-08-20T06:37:30;19.50;99.90
35682;DHT22;21805;51.022;4.782;2022-08-20T06:40:01;19.60;99.90
35682;DHT22;21805;51.022;4.782;2022-08-20T08:10:22;20.50;99.90
35682;DHT22;21805;51.022;4.782;2022-08-20T08:12:53;20.60;99.90
35682;DHT22;21805;51.022;4.782;2022-08-20T08:15:25;20.80;99.90
35682;DHT22;21805;51.022;4.782;2022-08-20T08:17:52;21.00;99.90
35682;DHT22;21805;51.022;4.782;2022-08-20T08:20:20;21.30;99.90
35682;DHT22;21805;51.022;4.782;2022-08-20T15:34:35;27.40;98.10
35682;DHT22;21805;51.022;4.782;2022-08-20T16:06:24;26.40;98.40
35682;DHT22;21805;51.022;4.782;2022-08-20T16:50:54;25.10;98.70
35682;DHT22;21805;51.022;4.782;2022-08-20T16:53:17;25.10;99.20
35682;DHT22;21805;51.022;4.782;2022-08-20T17:01:11;24.70;98.40
35682;DHT22;21805;51.022;4.782;2022-08-20T17:09:39;24.60;99.90
35682;DHT22;21805;51.022;4.782;2022-08-20T17:20:16;24.30;99.90
35682;DHT22;21805;51.022;4.782;2022-08-20T17:22:50;24.20;99.90
35682;DHT22;21805;51.022;4.782;2022-08-20T17:25:32;24.10;99.90
35682;DHT22;21805;51.022;4.782;2022-08-20T17:46:09;23.90;99.90
35682;DHT22;21805;51.022;4.782;2022-08-20T17:48:41;23.80;99.90
35682;DHT22;21805;51.022;4.782;2022-08-20T17:51:12;23.80;99.90
35682;DHT22;21805;51.022;4.782;2022-08-20T17:54:17;23.70;99.90
35682;DHT22;21805;51.022;4.782;2022-08-20T18:04:34;23.60;99.90
35682;DHT22;21805;51.022;4.782;2022-08-20T18:15:02;23.40;99.90
35682;DHT22;21805;51.022;4.782;2022-08-20T18:22:42;23.30;99.90
35682;DHT22;21805;51.022;4.782;2022-08-20T18:25:17;23.20;99.90
35682;DHT22;21805;51.022;4.782;2022-08-20T18:28:30;23.20;99.90
35682;DHT22;21805;51.022;4.782;2022-08-20T18:33:43;23.20;99.90
35682;DHT22;21805;51.022;4.782;2022-08-20T18:44:27;22.90;99.90
35682;DHT22;21805;51.022;4.782;2022-08-20T19:00:25;22.60;99.90
35682;DHT22;21805;51.022;4.782;2022-08-20T19:16:38;22.30;99.90
35682;DHT22;21805;51.022;4.782;2022-08-20T19:19:14;22.20;99.90
35682;DHT22;21805;51.022;4.782;2022-08-20T19:21:44;22.20;99.90
35682;DHT22;21805;51.022;4.782;2022-08-20T19:26:43;22.10;99.90
35682;DHT22;21805;51.022;4.782;2022-08-20T19:29:23;22.00;99.90
35682;DHT22;21805;51.022;4.782;2022-08-20T19:34:29;21.80;99.90
